createdAt,value
2023-06-30T00:00:34.545Z,247.53
2023-06-30T00:01:34.615Z,249.18
2023-06-30T00:02:34.642Z,249.72
2023-06-30T00:03:34.740Z,248.54
2023-06-30T00:04:34.669Z,248.64
2023-06-30T00:05:34.628Z,248.28
2023-06-30T00:06:34.627Z,248.70
2023-06-30T00:07:34.732Z,247.67
2023-06-30T00:08:34.668Z,247.60
2023-06-30T00:09:34.704Z,247.64
2023-06-30T00:10:34.703Z,246.89
2023-06-30T00:11:34.734Z,246.41
2023-06-30T00:12:34.857Z,248.07
2023-06-30T00:13:34.789Z,248.49
2023-06-30T00:14:34.783Z,248.61
2023-06-30T00:15:34.849Z,249.07
2023-06-30T00:16:34.901Z,249.00
2023-06-30T00:17:34.847Z,249.65
2023-06-30T00:18:34.857Z,248.95
2023-06-30T00:19:34.862Z,247.53
2023-06-30T00:20:35.073Z,248.03
2023-06-30T00:21:34.893Z,247.69
2023-06-30T00:22:34.938Z,248.57
2023-06-30T00:23:34.947Z,249.76
2023-06-30T00:24:34.974Z,248.47
2023-06-30T00:25:34.979Z,249.09
2023-06-30T00:26:35.002Z,249.84
2023-06-30T00:27:35.010Z,249.44
2023-06-30T00:28:35.064Z,249.45
2023-06-30T00:29:35.068Z,250.00
2023-06-30T00:30:35.070Z,250.00
2023-06-30T00:31:35.196Z,250.00
2023-06-30T00:32:35.140Z,250.00
2023-06-30T00:33:35.129Z,248.06
2023-06-30T00:34:35.149Z,249.50
2023-06-30T00:35:35.162Z,249.17
2023-06-30T00:36:35.203Z,248.97
2023-06-30T00:37:35.206Z,248.19
2023-06-30T00:38:35.281Z,250.00
2023-06-30T00:39:35.272Z,249.16
2023-06-30T00:40:35.281Z,249.08
2023-06-30T00:41:35.293Z,249.19
2023-06-30T00:42:35.317Z,249.03
2023-06-30T00:43:35.334Z,249.78
2023-06-30T00:44:35.337Z,248.85
2023-06-30T00:45:35.371Z,248.36
2023-06-30T00:46:35.419Z,248.94
2023-06-30T00:47:35.413Z,247.29
2023-06-30T00:48:35.409Z,248.44
2023-06-30T00:49:35.429Z,249.47
2023-06-30T00:50:35.446Z,248.36
2023-06-30T00:51:35.473Z,248.65
2023-06-30T00:52:35.478Z,249.32
2023-06-30T00:53:35.513Z,250.00
2023-06-30T00:54:35.529Z,250.00
2023-06-30T00:55:35.539Z,248.15
2023-06-30T00:56:35.584Z,248.61
2023-06-30T00:57:35.593Z,249.78
2023-06-30T00:58:35.598Z,249.69
2023-06-30T00:59:35.661Z,248.64
2023-06-30T01:00:35.656Z,249.71
2023-06-30T01:01:35.694Z,248.87
2023-06-30T01:02:35.740Z,248.43
2023-06-30T01:03:35.772Z,249.10
2023-06-30T01:04:35.775Z,247.57
2023-06-30T01:05:35.745Z,247.98
2023-06-30T01:06:35.777Z,246.55
2023-06-30T01:07:35.834Z,247.80
2023-06-30T01:08:35.825Z,247.42
2023-06-30T01:09:35.852Z,246.86
2023-06-30T01:10:35.880Z,246.83
2023-06-30T01:11:35.890Z,247.67
2023-06-30T01:12:35.961Z,248.00
2023-06-30T01:13:35.947Z,247.25
2023-06-30T01:14:35.972Z,248.50
2023-06-30T01:15:36.009Z,249.08
2023-06-30T01:16:36.087Z,250.00
2023-06-30T01:17:36.056Z,248.92
2023-06-30T01:18:36.066Z,248.05
2023-06-30T01:19:36.109Z,248.53
2023-06-30T01:20:36.118Z,248.73
2023-06-30T01:21:36.150Z,248.52
2023-06-30T01:22:36.152Z,249.81
2023-06-30T01:23:36.192Z,249.06
2023-06-30T01:24:36.231Z,248.95
2023-06-30T01:25:36.287Z,248.48
2023-06-30T01:26:36.261Z,249.20
2023-06-30T01:27:36.302Z,250.00
2023-06-30T01:28:36.381Z,249.82
2023-06-30T01:29:36.348Z,247.54
2023-06-30T01:30:36.384Z,248.72
2023-06-30T01:31:36.411Z,249.02
2023-06-30T01:32:36.449Z,248.87
2023-06-30T01:33:36.478Z,249.12
2023-06-30T01:34:36.482Z,248.43
2023-06-30T01:35:36.551Z,247.73
2023-06-30T01:36:36.534Z,248.85
2023-06-30T01:37:36.587Z,248.18
2023-06-30T01:38:36.592Z,248.76
2023-06-30T01:39:36.627Z,248.67
2023-06-30T01:40:36.654Z,249.29
2023-06-30T01:41:36.696Z,249.27
2023-06-30T01:42:36.714Z,248.40
2023-06-30T01:43:36.751Z,249.21
2023-06-30T01:44:36.803Z,248.91
2023-06-30T01:45:36.837Z,249.48
2023-06-30T01:46:36.917Z,249.21
2023-06-30T01:47:36.917Z,249.17
2023-06-30T01:48:36.923Z,249.25
2023-06-30T01:49:36.964Z,249.64
2023-06-30T01:50:36.979Z,248.91
2023-06-30T01:51:37.044Z,249.00
2023-06-30T01:52:37.071Z,248.67
2023-06-30T01:53:37.071Z,248.70
2023-06-30T01:54:37.103Z,248.79
2023-06-30T01:55:37.171Z,250.00
2023-06-30T01:56:37.186Z,248.71
2023-06-30T01:57:37.183Z,249.44
2023-06-30T01:58:37.241Z,248.17
2023-06-30T01:59:37.274Z,248.81
2023-06-30T02:00:37.272Z,248.92
2023-06-30T02:01:37.395Z,249.71
2023-06-30T02:02:37.410Z,248.79
2023-06-30T02:03:37.398Z,249.10
2023-06-30T02:04:37.420Z,248.67
2023-06-30T02:05:37.438Z,248.60
2023-06-30T02:06:37.486Z,248.04
2023-06-30T02:07:37.566Z,247.92
2023-06-30T02:08:37.550Z,249.16
2023-06-30T02:09:48.147Z,249.57
2023-06-30T02:10:38.563Z,249.60
2023-06-30T02:11:37.573Z,248.66
2023-06-30T02:12:37.569Z,248.98
2023-06-30T02:13:37.532Z,249.49
2023-06-30T02:14:37.553Z,249.05
2023-06-30T02:15:37.568Z,249.52
2023-06-30T02:16:37.591Z,249.53
2023-06-30T02:17:37.543Z,249.02
2023-06-30T02:18:37.497Z,250.00
2023-06-30T02:19:37.499Z,249.34
2023-06-30T02:20:37.504Z,248.13
2023-06-30T02:21:37.491Z,248.88
2023-06-30T02:22:37.501Z,248.20
2023-06-30T02:23:37.477Z,248.84
2023-06-30T02:24:37.447Z,250.00
2023-06-30T02:25:37.445Z,248.80
2023-06-30T02:26:37.470Z,250.00
2023-06-30T02:27:37.533Z,248.90
2023-06-30T02:28:37.561Z,249.01
2023-06-30T02:29:37.592Z,249.58
2023-06-30T02:30:37.608Z,249.34
2023-06-30T02:31:37.672Z,249.12
2023-06-30T02:32:37.717Z,248.93
2023-06-30T02:33:37.730Z,249.47
2023-06-30T02:34:37.778Z,248.21
2023-06-30T02:35:37.846Z,248.59
2023-06-30T02:36:37.829Z,249.97
2023-06-30T02:37:37.869Z,249.70
2023-06-30T02:38:37.874Z,250.00
2023-06-30T02:39:37.917Z,249.03
2023-06-30T02:40:37.971Z,249.64
2023-06-30T02:41:38.006Z,249.05
2023-06-30T02:42:38.032Z,249.14
2023-06-30T02:43:38.056Z,249.46
2023-06-30T02:44:38.115Z,249.02
2023-06-30T02:45:38.177Z,249.96
2023-06-30T02:46:38.187Z,248.94
2023-06-30T02:47:38.244Z,248.61
2023-06-30T02:48:38.243Z,249.72
2023-06-30T02:49:38.280Z,248.97
2023-06-30T02:50:38.328Z,248.55
2023-06-30T02:51:38.351Z,249.63
2023-06-30T02:52:38.388Z,249.47
2023-06-30T02:53:38.446Z,250.00
2023-06-30T02:54:38.459Z,249.31
2023-06-30T02:55:39.371Z,248.81
2023-06-30T02:56:38.538Z,248.55
2023-06-30T02:57:38.631Z,248.51
2023-06-30T02:58:38.657Z,249.47
2023-06-30T02:59:38.650Z,249.84
2023-06-30T03:00:38.714Z,248.36
2023-06-30T03:01:38.837Z,248.30
2023-06-30T03:02:39.014Z,249.67
2023-06-30T03:03:38.871Z,248.50
2023-06-30T03:04:38.852Z,248.76
2023-06-30T03:05:38.899Z,249.30
2023-06-30T03:06:38.938Z,249.03
2023-06-30T03:07:39.010Z,249.33
2023-06-30T03:08:39.013Z,248.87
2023-06-30T03:09:39.037Z,248.82
2023-06-30T03:10:39.092Z,248.95
2023-06-30T03:11:39.132Z,248.37
2023-06-30T03:12:39.152Z,249.21
2023-06-30T03:13:39.217Z,248.04
2023-06-30T03:14:39.230Z,249.21
2023-06-30T03:15:39.253Z,248.88
2023-06-30T03:16:39.324Z,248.32
2023-06-30T03:17:39.369Z,248.69
2023-06-30T03:18:39.366Z,248.84
2023-06-30T03:19:39.383Z,248.86
2023-06-30T03:20:39.448Z,248.26
2023-06-30T03:21:39.464Z,248.31
2023-06-30T03:22:39.492Z,249.54
2023-06-30T03:23:39.522Z,248.99
2023-06-30T03:24:39.543Z,249.06
2023-06-30T03:25:39.594Z,248.93
2023-06-30T03:26:39.656Z,249.67
2023-06-30T03:27:39.670Z,249.92
2023-06-30T03:28:39.681Z,249.64
2023-06-30T03:29:39.718Z,248.72
2023-06-30T03:30:39.808Z,249.41
2023-06-30T03:31:39.816Z,248.99
2023-06-30T03:32:39.919Z,248.12
2023-06-30T03:33:39.849Z,249.44
2023-06-30T03:34:39.927Z,249.48
2023-06-30T03:35:39.932Z,249.20
2023-06-30T03:36:39.971Z,248.88
2023-06-30T03:37:40.019Z,247.74
2023-06-30T03:38:40.016Z,249.11
2023-06-30T03:39:40.066Z,248.96
2023-06-30T03:40:40.131Z,249.61
2023-06-30T03:41:40.129Z,248.95
2023-06-30T03:42:40.171Z,249.02
2023-06-30T03:43:40.202Z,248.46
2023-06-30T03:44:40.260Z,248.24
2023-06-30T03:45:40.276Z,248.54
2023-06-30T03:46:40.318Z,249.42
2023-06-30T03:47:40.352Z,248.78
2023-06-30T03:48:40.364Z,249.29
2023-06-30T03:49:40.412Z,249.07
2023-06-30T03:50:40.446Z,248.82
2023-06-30T03:51:40.490Z,249.36
2023-06-30T03:52:40.528Z,248.40
2023-06-30T03:53:40.571Z,249.13
2023-06-30T03:54:40.608Z,248.69
2023-06-30T03:55:40.652Z,247.84
2023-06-30T03:56:40.686Z,247.86
2023-06-30T03:57:40.714Z,247.45
2023-06-30T03:58:40.763Z,247.88
2023-06-30T03:59:40.830Z,247.36
2023-06-30T04:00:40.869Z,248.01
2023-06-30T04:01:40.892Z,248.14
2023-06-30T04:02:41.151Z,246.98
2023-06-30T04:03:41.131Z,248.24
2023-06-30T04:04:41.067Z,247.69
2023-06-30T04:05:41.039Z,248.58
2023-06-30T04:06:41.076Z,248.03
2023-06-30T04:07:41.163Z,248.78
2023-06-30T04:08:41.164Z,248.26
2023-06-30T04:09:41.204Z,249.00
2023-06-30T04:10:41.227Z,248.24
2023-06-30T04:11:41.272Z,248.32
2023-06-30T04:12:41.329Z,247.67
2023-06-30T04:13:41.343Z,248.79
2023-06-30T04:14:41.386Z,248.48
2023-06-30T04:15:41.418Z,248.48
2023-06-30T04:16:41.505Z,248.14
2023-06-30T04:17:41.561Z,247.50
2023-06-30T04:18:41.548Z,248.58
2023-06-30T04:19:41.595Z,248.02
2023-06-30T04:20:41.637Z,247.75
2023-06-30T04:21:41.659Z,248.37
2023-06-30T04:22:41.714Z,248.86
2023-06-30T04:23:41.753Z,247.50
2023-06-30T04:24:41.802Z,248.07
2023-06-30T04:25:41.851Z,246.58
2023-06-30T04:26:41.882Z,247.27
2023-06-30T04:27:41.908Z,246.70
2023-06-30T04:28:41.966Z,247.24
2023-06-30T04:29:41.997Z,246.43
2023-06-30T04:30:42.029Z,246.19
2023-06-30T04:31:42.121Z,246.66
2023-06-30T04:32:42.147Z,246.41
2023-06-30T04:33:42.172Z,246.16
2023-06-30T04:34:42.193Z,247.11
2023-06-30T04:35:42.363Z,246.81
2023-06-30T04:36:42.293Z,246.33
2023-06-30T04:37:42.343Z,246.24
2023-06-30T04:38:42.431Z,246.51
2023-06-30T04:39:42.430Z,247.30
2023-06-30T04:40:42.479Z,247.49
2023-06-30T04:41:42.518Z,248.15
2023-06-30T04:42:42.539Z,248.38
2023-06-30T04:43:42.581Z,247.64
2023-06-30T04:44:42.636Z,247.86
2023-06-30T04:45:42.927Z,248.03
2023-06-30T04:46:42.820Z,247.01
2023-06-30T04:47:42.792Z,246.66
2023-06-30T04:48:42.811Z,247.50
2023-06-30T04:49:42.847Z,246.46
2023-06-30T04:50:42.932Z,245.04
2023-06-30T04:51:42.939Z,246.54
2023-06-30T04:52:43.005Z,246.99
2023-06-30T04:53:43.037Z,246.31
2023-06-30T04:54:43.068Z,245.96
2023-06-30T04:55:43.277Z,245.65
2023-06-30T04:56:43.157Z,246.51
2023-06-30T04:57:43.203Z,245.31
2023-06-30T04:58:43.237Z,245.41
2023-06-30T04:59:43.307Z,244.02
2023-06-30T05:00:43.315Z,246.18
2023-06-30T05:01:43.380Z,247.48
2023-06-30T05:02:43.432Z,246.03
2023-06-30T05:03:43.497Z,245.93
2023-06-30T05:04:43.482Z,246.27
2023-06-30T05:05:43.828Z,245.64
2023-06-30T05:06:43.593Z,245.25
2023-06-30T05:07:43.671Z,244.72
2023-06-30T05:08:43.652Z,244.09
2023-06-30T05:09:43.706Z,245.44
2023-06-30T05:10:43.752Z,243.58
2023-06-30T05:11:43.785Z,242.13
2023-06-30T05:12:43.851Z,231.79
2023-06-30T05:13:43.890Z,225.84
2023-06-30T05:14:43.937Z,219.12
2023-06-30T05:15:44.273Z,215.90
2023-06-30T05:16:43.988Z,214.33
2023-06-30T05:17:44.033Z,215.50
2023-06-30T05:18:44.020Z,216.97
2023-06-30T05:19:44.074Z,217.31
2023-06-30T05:20:44.183Z,216.99
2023-06-30T05:21:44.171Z,216.60
2023-06-30T05:22:44.245Z,216.05
2023-06-30T05:23:44.327Z,215.60
2023-06-30T05:24:44.280Z,217.88
2023-06-30T05:25:44.534Z,218.03
2023-06-30T05:26:44.433Z,217.94
2023-06-30T05:27:44.523Z,218.16
2023-06-30T05:28:52.711Z,217.08
2023-06-30T05:29:45.508Z,217.25
2023-06-30T05:30:44.516Z,217.87
2023-06-30T05:31:44.542Z,220.12
2023-06-30T05:32:44.534Z,225.40
2023-06-30T05:33:44.511Z,230.91
2023-06-30T05:34:44.551Z,231.09
2023-06-30T05:35:44.699Z,228.12
2023-06-30T05:36:44.488Z,230.02
2023-06-30T05:37:44.466Z,242.56
2023-06-30T05:38:44.520Z,248.37
2023-06-30T05:39:44.433Z,250.86
2023-06-30T05:40:44.429Z,247.60
2023-06-30T05:41:44.447Z,248.86
2023-06-30T05:42:44.497Z,249.42
2023-06-30T05:43:44.537Z,246.46
2023-06-30T05:44:45.493Z,246.29
2023-06-30T05:45:44.752Z,250.56
2023-06-30T05:46:44.603Z,247.60
2023-06-30T05:47:44.597Z,242.70
2023-06-30T05:48:44.627Z,233.76
2023-06-30T05:49:44.597Z,231.15
2023-06-30T05:50:44.623Z,230.84
2023-06-30T05:51:44.624Z,228.09
2023-06-30T05:52:44.630Z,227.77
2023-06-30T05:53:44.635Z,229.94
2023-06-30T05:54:44.688Z,231.40
2023-06-30T05:55:44.847Z,231.72
2023-06-30T05:56:44.674Z,229.10
2023-06-30T05:57:44.701Z,228.87
2023-06-30T05:58:44.726Z,228.58
2023-06-30T05:59:44.743Z,229.38
2023-06-30T06:00:44.760Z,232.21
2023-06-30T06:01:44.775Z,233.01
2023-06-30T06:02:44.888Z,230.22
2023-06-30T06:03:45.078Z,231.03
2023-06-30T06:04:44.998Z,233.51
2023-06-30T06:05:45.164Z,234.99
2023-06-30T06:06:44.877Z,232.64
2023-06-30T06:07:45.054Z,231.86
2023-06-30T06:08:44.920Z,228.01
2023-06-30T06:09:44.943Z,228.95
2023-06-30T06:10:45.000Z,231.22
2023-06-30T06:11:44.975Z,231.14
2023-06-30T06:12:45.020Z,233.38
2023-06-30T06:13:45.003Z,231.90
2023-06-30T06:14:45.010Z,229.67
2023-06-30T06:15:45.192Z,231.99
2023-06-30T06:16:45.099Z,231.74
2023-06-30T06:17:45.128Z,228.61
2023-06-30T06:18:46.550Z,229.33
2023-06-30T06:19:45.132Z,228.67
2023-06-30T06:20:45.126Z,228.72
2023-06-30T06:21:45.106Z,228.75
2023-06-30T06:22:45.097Z,227.74
2023-06-30T06:23:45.083Z,231.26
2023-06-30T06:24:45.104Z,233.17
2023-06-30T06:25:45.612Z,235.31
2023-06-30T06:26:45.098Z,239.15
2023-06-30T06:27:45.061Z,239.31
2023-06-30T06:28:45.058Z,240.05
2023-06-30T06:29:45.050Z,236.07
2023-06-30T06:30:45.523Z,237.64
2023-06-30T06:31:45.050Z,235.07
2023-06-30T06:32:45.108Z,231.29
2023-06-30T06:33:45.008Z,226.53
2023-06-30T06:34:45.006Z,222.57
2023-06-30T06:35:45.219Z,220.15
2023-06-30T06:36:45.010Z,217.01
2023-06-30T06:37:45.010Z,209.69
2023-06-30T06:38:44.988Z,210.78
2023-06-30T06:39:44.975Z,214.13
2023-06-30T06:40:44.973Z,219.16
2023-06-30T06:41:44.959Z,224.07
2023-06-30T06:42:44.973Z,224.78
2023-06-30T06:43:44.988Z,224.01
2023-06-30T06:44:44.952Z,220.68
2023-06-30T06:45:45.260Z,219.06
2023-06-30T06:46:45.086Z,219.46
2023-06-30T06:47:45.019Z,216.96
2023-06-30T06:48:44.967Z,217.59
2023-06-30T06:49:47.006Z,220.43
2023-06-30T06:50:44.995Z,222.46
2023-06-30T06:51:44.930Z,226.82
2023-06-30T06:52:44.892Z,225.26
2023-06-30T06:53:44.885Z,223.42
2023-06-30T06:54:44.895Z,223.85
2023-06-30T06:55:45.316Z,226.16
2023-06-30T06:56:44.859Z,223.29
2023-06-30T06:57:44.871Z,220.95
2023-06-30T06:58:44.877Z,219.41
2023-06-30T06:59:44.908Z,214.19
2023-06-30T07:00:44.943Z,213.24
2023-06-30T07:01:44.993Z,212.46
2023-06-30T07:02:45.050Z,212.43
2023-06-30T07:03:45.080Z,212.83
2023-06-30T07:04:45.128Z,210.03
2023-06-30T07:05:45.550Z,209.36
2023-06-30T07:06:45.219Z,212.11
2023-06-30T07:07:45.353Z,210.61
2023-06-30T07:08:45.333Z,209.45
2023-06-30T07:09:45.416Z,209.06
2023-06-30T07:10:45.457Z,208.66
2023-06-30T07:11:45.502Z,209.64
2023-06-30T07:12:45.569Z,207.89
2023-06-30T07:13:45.648Z,210.66
2023-06-30T07:14:47.934Z,207.71
2023-06-30T07:15:45.915Z,210.98
2023-06-30T07:16:45.727Z,210.61
2023-06-30T07:17:45.767Z,210.16
2023-06-30T07:18:45.764Z,209.73
2023-06-30T07:19:45.662Z,211.00
2023-06-30T07:20:45.653Z,217.68
2023-06-30T07:21:45.640Z,221.18
2023-06-30T07:22:45.618Z,218.41
2023-06-30T07:23:45.632Z,213.73
2023-06-30T07:24:45.647Z,206.02
2023-06-30T07:25:45.944Z,206.02
2023-06-30T07:26:45.618Z,205.09
2023-06-30T07:27:45.757Z,203.30
2023-06-30T07:28:45.620Z,198.45
2023-06-30T07:29:45.650Z,199.24
2023-06-30T07:30:45.596Z,199.09
2023-06-30T07:31:45.668Z,196.28
2023-06-30T07:32:45.614Z,193.16
2023-06-30T07:33:45.574Z,193.97
2023-06-30T07:34:45.578Z,188.96
2023-06-30T07:35:45.965Z,184.44
2023-06-30T07:36:45.559Z,186.57
2023-06-30T07:37:45.556Z,191.85
2023-06-30T07:38:45.525Z,197.89
2023-06-30T07:39:45.513Z,199.58
2023-06-30T07:40:55.930Z,198.86
2023-06-30T07:41:46.545Z,199.07
2023-06-30T07:42:45.534Z,199.55
2023-06-30T07:43:45.492Z,201.22
2023-06-30T07:44:45.521Z,203.99
2023-06-30T07:45:45.726Z,205.43
2023-06-30T07:46:45.485Z,208.61
2023-06-30T07:47:45.598Z,211.48
2023-06-30T07:48:45.619Z,212.46
2023-06-30T07:49:45.484Z,214.30
2023-06-30T07:50:58.810Z,209.86
2023-06-30T07:51:46.550Z,206.95
2023-06-30T07:52:45.538Z,202.72
2023-06-30T07:53:45.565Z,200.30
2023-06-30T07:54:45.538Z,203.85
2023-06-30T07:55:46.148Z,202.84
2023-06-30T07:56:45.529Z,203.18
2023-06-30T07:57:45.687Z,205.80
2023-06-30T07:58:45.500Z,208.81
2023-06-30T07:59:45.539Z,210.84
2023-06-30T08:00:45.485Z,211.65
2023-06-30T08:01:45.477Z,209.48
2023-06-30T08:02:45.540Z,208.48
2023-06-30T08:03:45.682Z,205.93
2023-06-30T08:04:45.585Z,199.92
2023-06-30T08:05:46.114Z,200.49
2023-06-30T08:06:45.494Z,195.89
2023-06-30T08:07:49.266Z,199.07
2023-06-30T08:08:46.488Z,198.74
2023-06-30T08:09:45.500Z,199.14
2023-06-30T08:10:45.505Z,194.58
2023-06-30T08:11:45.474Z,197.09
2023-06-30T08:12:45.470Z,194.06
2023-06-30T08:13:45.466Z,190.80
2023-06-30T08:14:45.504Z,186.32
2023-06-30T08:15:48.725Z,178.51
2023-06-30T08:16:45.499Z,178.58
2023-06-30T08:17:56.535Z,178.53
2023-06-30T08:18:51.309Z,178.59
2023-06-30T08:19:49.717Z,178.66
2023-06-30T08:20:45.492Z,178.70
2023-06-30T08:21:45.453Z,179.34
2023-06-30T08:22:47.030Z,180.65
2023-06-30T08:23:45.409Z,179.32
2023-06-30T08:24:45.382Z,172.75
2023-06-30T08:25:45.539Z,168.00
2023-06-30T08:26:45.364Z,168.02
2023-06-30T08:27:45.387Z,165.60
2023-06-30T08:28:45.358Z,165.43
2023-06-30T08:29:45.355Z,165.04
2023-06-30T08:30:45.372Z,166.17
2023-06-30T08:31:45.328Z,167.18
2023-06-30T08:32:45.357Z,168.27
2023-06-30T08:33:45.359Z,166.97
2023-06-30T08:34:45.392Z,165.53
2023-06-30T08:35:45.621Z,161.60
2023-06-30T08:36:45.477Z,159.74
2023-06-30T08:37:45.591Z,157.62
2023-06-30T08:38:45.601Z,153.84
2023-06-30T08:39:45.662Z,152.91
2023-06-30T08:40:45.737Z,154.31
2023-06-30T08:41:45.765Z,151.58
2023-06-30T08:42:45.832Z,149.31
2023-06-30T08:43:45.877Z,145.83
2023-06-30T08:44:45.969Z,145.24
2023-06-30T08:45:46.179Z,145.22
2023-06-30T08:46:46.108Z,147.66
2023-06-30T08:47:46.218Z,144.30
2023-06-30T08:48:46.151Z,139.41
2023-06-30T08:49:46.223Z,131.28
2023-06-30T08:50:46.267Z,130.27
2023-06-30T08:51:46.341Z,124.47
2023-06-30T08:52:46.382Z,125.50
2023-06-30T08:53:46.430Z,127.28
2023-06-30T08:54:46.507Z,128.03
2023-06-30T08:55:46.789Z,132.54
2023-06-30T08:56:46.607Z,130.73
2023-06-30T08:57:46.635Z,135.89
2023-06-30T08:58:46.654Z,135.24
2023-06-30T08:59:46.718Z,130.19
2023-06-30T09:00:46.762Z,126.82
2023-06-30T09:01:47.334Z,126.50
2023-06-30T09:02:46.928Z,130.44
2023-06-30T09:03:46.970Z,127.40
2023-06-30T09:04:46.960Z,127.77
2023-06-30T09:05:47.296Z,131.69
2023-06-30T09:06:46.989Z,132.10
2023-06-30T09:07:47.096Z,130.56
2023-06-30T09:08:47.080Z,127.17
2023-06-30T09:09:47.139Z,125.00
2023-06-30T09:10:47.170Z,121.42
2023-06-30T09:11:47.231Z,112.27
2023-06-30T09:12:47.316Z,111.31
2023-06-30T09:13:47.349Z,112.30
2023-06-30T09:14:48.115Z,117.83
2023-06-30T09:15:47.643Z,129.51
2023-06-30T09:16:47.561Z,134.48
2023-06-30T09:17:47.700Z,133.44
2023-06-30T09:18:47.604Z,133.08
2023-06-30T09:19:47.694Z,132.85
2023-06-30T09:20:47.746Z,134.28
2023-06-30T09:21:47.784Z,132.53
2023-06-30T09:22:51.696Z,127.64
2023-06-30T09:23:48.826Z,123.83
2023-06-30T09:24:47.793Z,118.47
2023-06-30T09:25:48.079Z,113.67
2023-06-30T09:26:47.785Z,107.38
2023-06-30T09:27:47.785Z,101.53
2023-06-30T09:28:47.846Z,100.49
2023-06-30T09:29:47.753Z,103.92
2023-06-30T09:30:47.858Z,105.67
2023-06-30T09:31:47.781Z,106.34
2023-06-30T09:32:47.814Z,113.72
2023-06-30T09:33:47.852Z,118.80
2023-06-30T09:34:47.914Z,117.74
2023-06-30T09:35:48.793Z,120.58
2023-06-30T09:36:48.008Z,113.09
2023-06-30T09:37:48.098Z,108.03
2023-06-30T09:38:48.157Z,102.69
2023-06-30T09:39:48.207Z,100.46
2023-06-30T09:40:48.334Z,96.02
2023-06-30T09:41:48.320Z,97.86
2023-06-30T09:42:48.504Z,103.00
2023-06-30T09:43:48.449Z,99.08
2023-06-30T09:44:48.485Z,101.56
2023-06-30T09:45:49.163Z,101.39
2023-06-30T09:46:48.562Z,98.41
2023-06-30T09:47:48.673Z,95.45
2023-06-30T09:48:48.676Z,94.26
2023-06-30T09:49:48.802Z,93.81
2023-06-30T09:50:48.814Z,94.93
2023-06-30T09:51:48.847Z,96.77
2023-06-30T09:52:48.903Z,98.15
2023-06-30T09:53:48.922Z,99.81
2023-06-30T09:54:49.003Z,101.07
2023-06-30T09:55:49.524Z,106.08
2023-06-30T09:56:49.092Z,104.26
2023-06-30T09:57:49.186Z,98.42
2023-06-30T09:58:49.635Z,97.46
2023-06-30T09:59:49.513Z,100.92
2023-06-30T10:00:49.314Z,97.61
2023-06-30T10:01:49.402Z,94.11
2023-06-30T10:02:49.503Z,89.73
2023-06-30T10:03:49.497Z,81.56
2023-06-30T10:04:49.524Z,75.82
2023-06-30T10:06:49.578Z,63.05
2023-06-30T10:07:49.603Z,55.22
2023-06-30T10:08:49.658Z,46.54
2023-06-30T10:09:49.613Z,41.47
2023-06-30T10:10:49.710Z,40.22
2023-06-30T10:11:49.687Z,39.89
2023-06-30T10:12:49.702Z,44.57
2023-06-30T10:13:49.701Z,53.11
2023-06-30T10:14:49.741Z,60.83
2023-06-30T10:15:50.061Z,69.71
2023-06-30T10:16:49.806Z,73.42
2023-06-30T10:17:49.859Z,74.16
2023-06-30T10:18:49.772Z,73.69
2023-06-30T10:19:49.792Z,76.01
2023-06-30T10:20:50.539Z,82.67
2023-06-30T10:21:49.848Z,88.51
2023-06-30T10:22:49.882Z,96.98
2023-06-30T10:23:49.905Z,98.81
2023-06-30T10:24:49.905Z,90.78
2023-06-30T10:25:50.579Z,90.15
2023-06-30T10:26:49.961Z,93.04
2023-06-30T10:27:49.989Z,92.38
2023-06-30T10:28:50.017Z,89.27
2023-06-30T10:29:50.021Z,88.34
2023-06-30T10:30:50.028Z,86.33
2023-06-30T10:31:50.031Z,86.89
2023-06-30T10:32:50.175Z,91.44
2023-06-30T10:33:50.189Z,88.87
2023-06-30T10:34:50.180Z,85.09
2023-06-30T10:35:50.244Z,84.40
2023-06-30T10:36:50.322Z,87.74
2023-06-30T10:37:50.339Z,91.07
2023-06-30T10:38:50.383Z,101.70
2023-06-30T10:39:50.419Z,123.76
2023-06-30T10:40:50.396Z,131.66
2023-06-30T10:41:50.433Z,139.35
2023-06-30T10:42:50.430Z,145.56
2023-06-30T10:43:50.469Z,155.16
2023-06-30T10:44:50.539Z,160.13
2023-06-30T10:45:50.590Z,166.03
2023-06-30T10:46:50.644Z,168.79
2023-06-30T10:47:50.699Z,172.71
2023-06-30T10:48:50.679Z,174.20
2023-06-30T10:49:50.703Z,196.42
2023-06-30T10:50:50.719Z,191.85
2023-06-30T10:51:50.751Z,203.29
2023-06-30T10:52:50.776Z,206.51
2023-06-30T10:53:50.774Z,199.54
2023-06-30T10:54:50.843Z,203.60
2023-06-30T10:55:51.037Z,208.91
2023-06-30T10:56:50.807Z,209.95
2023-06-30T10:57:50.851Z,213.86
2023-06-30T10:58:50.904Z,214.05
2023-06-30T10:59:50.953Z,216.06
2023-06-30T11:00:51.010Z,218.35
2023-06-30T11:01:51.073Z,218.94
2023-06-30T11:02:51.404Z,223.53
2023-06-30T11:03:51.307Z,225.79
2023-06-30T11:04:51.320Z,227.33
2023-06-30T11:05:51.526Z,228.99
2023-06-30T11:06:51.322Z,228.99
2023-06-30T11:07:51.386Z,229.41
2023-06-30T11:08:51.439Z,229.96
2023-06-30T11:09:51.490Z,232.97
2023-06-30T11:10:51.563Z,235.42
2023-06-30T11:11:52.028Z,233.84
2023-06-30T11:12:51.601Z,235.64
2023-06-30T11:13:51.647Z,234.53
2023-06-30T11:14:51.708Z,236.33
2023-06-30T11:15:54.382Z,234.19
2023-06-30T11:16:51.734Z,237.67
2023-06-30T11:17:51.787Z,234.23
2023-06-30T11:18:51.826Z,235.57
2023-06-30T11:19:51.724Z,236.67
2023-06-30T11:20:52.046Z,233.82
2023-06-30T11:21:51.682Z,232.86
2023-06-30T11:22:51.681Z,234.37
2023-06-30T11:23:51.667Z,234.88
2023-06-30T11:24:51.676Z,232.17
2023-06-30T11:25:51.671Z,230.95
2023-06-30T11:26:51.682Z,232.03
2023-06-30T11:27:51.663Z,229.82
2023-06-30T11:28:51.652Z,227.36
2023-06-30T11:29:51.809Z,226.60
2023-06-30T11:30:51.651Z,230.68
2023-06-30T11:31:51.627Z,230.23
2023-06-30T11:32:51.617Z,230.43
2023-06-30T11:33:51.632Z,230.57
2023-06-30T11:34:51.616Z,234.73
2023-06-30T11:35:51.603Z,235.28
2023-06-30T11:36:51.594Z,239.01
2023-06-30T11:37:51.608Z,244.72
2023-06-30T11:38:51.595Z,247.61
2023-06-30T11:39:51.576Z,246.70
2023-06-30T11:40:51.567Z,246.85
2023-06-30T11:41:51.552Z,246.90
2023-06-30T11:42:51.572Z,247.29
2023-06-30T11:43:51.541Z,247.63
2023-06-30T11:44:51.561Z,245.25
2023-06-30T11:45:51.544Z,243.67
2023-06-30T11:46:53.478Z,246.15
2023-06-30T11:47:51.563Z,242.67
2023-06-30T11:48:51.528Z,241.56
2023-06-30T11:49:51.561Z,240.12
2023-06-30T11:50:51.519Z,241.45
2023-06-30T11:51:51.526Z,237.31
2023-06-30T11:52:51.491Z,240.41
2023-06-30T11:53:51.484Z,238.97
2023-06-30T11:54:51.459Z,238.88
2023-06-30T11:55:51.500Z,238.21
2023-06-30T11:56:51.452Z,239.67
2023-06-30T11:57:51.465Z,238.39
2023-06-30T11:58:51.470Z,237.05
2023-06-30T11:59:51.447Z,236.33
2023-06-30T12:00:51.425Z,235.31
2023-06-30T12:01:51.439Z,236.69
2023-06-30T12:02:52.190Z,238.76
2023-06-30T12:03:51.495Z,242.31
2023-06-30T12:04:51.455Z,236.68
2023-06-30T12:05:51.411Z,235.22
2023-06-30T12:06:51.380Z,235.63
2023-06-30T12:07:51.380Z,233.24
2023-06-30T12:08:51.385Z,233.83
2023-06-30T12:09:51.360Z,236.12
2023-06-30T12:10:51.543Z,233.93
2023-06-30T12:11:51.345Z,233.26
2023-06-30T12:12:51.347Z,231.78
2023-06-30T12:13:51.333Z,231.24
2023-06-30T12:14:51.325Z,230.26
2023-06-30T12:15:51.537Z,230.86
2023-06-30T12:16:51.370Z,229.51
2023-06-30T12:17:51.417Z,230.05
2023-06-30T12:18:51.298Z,230.81
2023-06-30T12:19:51.298Z,231.07
2023-06-30T12:20:51.553Z,229.82
2023-06-30T12:21:51.291Z,227.87
2023-06-30T12:22:51.284Z,228.84
2023-06-30T12:23:51.275Z,228.54
2023-06-30T12:24:51.277Z,223.26
2023-06-30T12:25:51.270Z,225.55
2023-06-30T12:26:51.241Z,224.88
2023-06-30T12:27:51.228Z,226.05
2023-06-30T12:28:51.239Z,223.59
2023-06-30T12:29:51.232Z,222.95
2023-06-30T12:30:51.231Z,224.33
2023-06-30T12:31:51.242Z,221.36